createdAt,value
2023-02-02T00:02:24.134Z,20.67
2023-02-02T00:04:54.843Z,13.07
2023-02-02T00:07:27.026Z,11.63
2023-02-02T00:09:58.718Z,2.03
2023-02-02T00:12:31.528Z,18.65
2023-02-02T00:15:02.548Z,7.30
2023-02-02T00:17:34.879Z,9.00
2023-02-02T00:20:06.076Z,10.30
2023-02-02T00:22:37.488Z,4.68
2023-02-02T00:25:11.364Z,9.48
2023-02-02T00:27:46.465Z,10.73
2023-02-02T00:30:18.161Z,5.78
2023-02-02T00:32:50.862Z,7.25
2023-02-02T00:35:22.151Z,6.05
2023-02-02T00:37:54.305Z,10.93
2023-02-02T00:40:26.448Z,15.77
2023-02-02T00:42:59.015Z,5.73
2023-02-02T00:45:29.025Z,3.85
2023-02-02T00:48:00.420Z,9.95
2023-02-02T00:50:31.555Z,4.15
2023-02-02T00:53:02.939Z,3.58
2023-02-02T00:55:34.208Z,4.82
2023-02-02T00:58:07.349Z,4.93
2023-02-02T01:00:38.894Z,3.05
2023-02-02T01:03:13.260Z,11.13
2023-02-02T01:05:45.351Z,6.30
2023-02-02T01:08:16.570Z,6.50
2023-02-02T01:10:47.177Z,11.98
2023-02-02T01:13:20.897Z,8.20
2023-02-02T01:15:52.526Z,2.65
2023-02-02T01:18:23.929Z,1.83
2023-02-02T01:20:59.503Z,5.60
2023-02-02T01:23:31.214Z,3.60
2023-02-02T01:26:04.293Z,4.38
2023-02-02T01:28:38.708Z,9.25
2023-02-02T01:31:12.029Z,3.08
2023-02-02T01:33:43.862Z,11.00
2023-02-02T01:36:17.984Z,6.15
2023-02-02T01:38:50.383Z,4.70
2023-02-02T01:41:26.331Z,6.28
2023-02-02T01:44:01.809Z,2.80
2023-02-02T01:46:35.618Z,5.22
2023-02-02T01:49:12.667Z,8.68
2023-02-02T01:51:53.332Z,2.08
2023-02-02T01:54:31.555Z,7.85
2023-02-02T01:57:06.089Z,5.03
2023-02-02T01:59:39.056Z,7.35
2023-02-02T02:02:12.278Z,2.60
2023-02-02T02:04:44.188Z,10.65
2023-02-02T02:07:17.002Z,9.82
2023-02-02T02:09:49.440Z,14.27
2023-02-02T02:12:20.648Z,6.20
2023-02-02T02:15:11.873Z,6.95
2023-02-02T02:18:01.929Z,2.30
2023-02-02T02:21:38.976Z,4.07
2023-02-02T02:25:27.043Z,2.45
2023-02-02T02:28:38.258Z,5.68
2023-02-02T02:32:00.893Z,2.85
2023-02-02T02:34:50.904Z,5.67
2023-02-02T02:37:34.369Z,11.52
2023-02-02T02:40:15.823Z,8.30
2023-02-02T02:42:56.666Z,3.70
2023-02-02T02:45:30.605Z,7.25
2023-02-02T02:48:04.271Z,3.90
2023-02-02T02:50:36.205Z,2.67
2023-02-02T02:53:13.362Z,5.20
2023-02-02T02:56:06.732Z,3.10
2023-02-02T02:58:51.547Z,3.03
2023-02-02T03:01:32.177Z,7.28
2023-02-02T03:04:13.407Z,7.00
2023-02-02T03:06:59.054Z,2.47
2023-02-02T03:09:37.754Z,15.65
2023-02-02T03:12:09.612Z,4.82
2023-02-02T03:14:41.284Z,4.85
2023-02-02T03:17:13.199Z,7.50
2023-02-02T03:19:45.877Z,12.00
2023-02-02T03:22:18.247Z,10.40
2023-02-02T03:24:49.395Z,5.55
2023-02-02T03:27:20.913Z,11.95
2023-02-02T03:29:52.759Z,7.20
2023-02-02T03:32:24.931Z,11.85
2023-02-02T03:34:57.302Z,7.40
2023-02-02T03:37:29.995Z,7.93
2023-02-02T03:40:00.950Z,8.50
2023-02-02T03:42:32.238Z,6.82
2023-02-02T03:45:03.331Z,9.55
2023-02-02T03:47:35.096Z,6.07
2023-02-02T03:50:10.110Z,13.75
2023-02-02T03:52:41.488Z,5.45
2023-02-02T03:55:12.935Z,13.15
2023-02-02T03:57:46.057Z,16.73
2023-02-02T04:00:18.050Z,6.55
2023-02-02T04:02:49.514Z,8.02
2023-02-02T04:05:21.836Z,10.82
2023-02-02T04:07:54.438Z,8.48
2023-02-02T04:10:25.367Z,8.90
2023-02-02T04:12:58.015Z,6.93
2023-02-02T04:15:29.197Z,9.07
2023-02-02T04:18:01.784Z,9.18
2023-02-02T04:20:34.051Z,7.00
2023-02-02T04:23:06.034Z,10.63
2023-02-02T04:25:37.152Z,11.32
2023-02-02T04:28:08.387Z,3.30
2023-02-02T04:30:41.536Z,5.13
2023-02-02T04:33:17.779Z,3.10
2023-02-02T04:35:50.758Z,5.72
2023-02-02T04:38:24.903Z,7.20
2023-02-02T04:40:55.837Z,6.78
2023-02-02T04:43:26.958Z,12.68
2023-02-02T04:45:59.142Z,11.77
2023-02-02T04:48:30.453Z,8.77
2023-02-02T04:51:04.186Z,9.40
2023-02-02T04:53:35.840Z,5.53
2023-02-02T04:56:11.812Z,6.13
2023-02-02T04:58:43.324Z,5.75
2023-02-02T05:01:17.592Z,10.68
2023-02-02T05:03:50.125Z,9.02
2023-02-02T05:06:22.362Z,10.35
2023-02-02T05:08:53.459Z,7.72
2023-02-02T05:11:25.630Z,6.20
2023-02-02T05:13:57.213Z,4.20
2023-02-02T05:16:29.213Z,12.05
2023-02-02T05:19:00.650Z,9.18
2023-02-02T05:21:32.874Z,5.47
2023-02-02T05:24:04.164Z,7.53
2023-02-02T05:26:35.244Z,2.92
2023-02-02T05:29:06.901Z,12.90
2023-02-02T05:31:37.757Z,7.70
2023-02-02T05:34:11.560Z,6.05
2023-02-02T05:36:44.018Z,7.53
2023-02-02T05:39:15.273Z,4.40
2023-02-02T05:41:45.907Z,5.40
2023-02-02T05:44:17.155Z,8.07
2023-02-02T05:46:47.756Z,6.28
2023-02-02T05:49:18.966Z,4.20
2023-02-02T05:51:55.411Z,7.22
2023-02-02T05:54:26.786Z,6.68
2023-02-02T05:56:57.631Z,13.57
2023-02-02T05:59:29.369Z,6.07
2023-02-02T06:02:00.204Z,5.53
2023-02-02T06:04:31.441Z,6.20
2023-02-02T06:07:03.715Z,8.90
2023-02-02T06:09:34.855Z,7.27
2023-02-02T06:12:06.451Z,10.65
2023-02-02T06:14:37.600Z,3.05
2023-02-02T06:17:08.457Z,13.18
2023-02-02T06:19:39.384Z,6.65
2023-02-02T06:22:11.617Z,12.65
2023-02-02T06:24:42.728Z,7.27
2023-02-02T06:27:13.471Z,9.25
2023-02-02T06:29:44.610Z,4.55
2023-02-02T06:32:15.259Z,5.68
2023-02-02T06:34:46.488Z,5.32
2023-02-02T06:37:18.667Z,5.65
2023-02-02T06:39:49.762Z,5.67
2023-02-02T06:42:22.065Z,5.20
2023-02-02T06:44:53.357Z,6.95
2023-02-02T06:47:26.537Z,4.50
2023-02-02T06:49:58.022Z,6.07
2023-02-02T06:52:30.792Z,4.22
2023-02-02T06:55:01.959Z,4.43
2023-02-02T06:57:32.682Z,4.05
2023-02-02T07:00:04.228Z,6.45
2023-02-02T07:02:35.856Z,3.80
2023-02-02T07:05:07.832Z,5.40
2023-02-02T07:07:39.996Z,6.47
2023-02-02T07:11:12.705Z,7.37
2023-02-02T07:13:02.913Z,2.20
2023-02-02T07:15:34.250Z,9.13
2023-02-02T07:18:05.010Z,2.53
2023-02-02T07:20:36.261Z,2.28
2023-02-02T07:23:08.932Z,3.03
2023-02-02T07:25:40.873Z,3.67
2023-02-02T07:28:12.904Z,2.60
2023-02-02T07:30:43.920Z,4.32
2023-02-02T07:33:14.727Z,7.82
2023-02-02T07:35:45.963Z,5.03
2023-02-02T07:38:19.023Z,5.20
2023-02-02T07:40:50.465Z,6.68
2023-02-02T07:43:21.103Z,4.70
2023-02-02T07:45:52.329Z,3.83
2023-02-02T07:48:23.408Z,4.63
2023-02-02T07:50:54.764Z,7.22
2023-02-02T07:53:27.027Z,1.52
2023-02-02T07:56:12.277Z,4.93
2023-02-02T07:58:43.504Z,2.03
2023-02-02T08:01:17.228Z,6.85
2023-02-02T08:06:22.395Z,3.55
2023-02-02T08:08:54.832Z,5.95
2023-02-02T08:11:28.221Z,1.92
2023-02-02T08:14:01.411Z,12.88
2023-02-02T08:16:34.803Z,1.38
2023-02-02T08:19:05.766Z,5.95
2023-02-02T08:21:37.628Z,1.88
2023-02-02T08:24:10.296Z,2.45
2023-02-02T08:26:41.547Z,1.45
2023-02-02T08:29:17.360Z,2.70
2023-02-02T08:31:48.366Z,2.75
2023-02-02T08:34:18.927Z,3.55
2023-02-02T08:36:49.945Z,3.28
2023-02-02T08:39:22.806Z,1.05
2023-02-02T08:41:56.796Z,0.63
2023-02-02T08:46:00.433Z,4.38
2023-02-02T08:47:19.242Z,1.35
2023-02-02T08:49:54.462Z,3.25
2023-02-02T08:52:29.970Z,3.95
2023-02-02T08:55:02.140Z,3.50
2023-02-02T08:57:34.616Z,2.97
2023-02-02T09:00:06.925Z,4.10
2023-02-02T09:02:38.038Z,3.22
2023-02-02T09:05:09.672Z,3.75
2023-02-02T09:07:40.968Z,3.85
2023-02-02T09:10:13.513Z,4.05
2023-02-02T09:12:44.634Z,6.30
2023-02-02T09:15:15.755Z,4.85
2023-02-02T09:17:47.038Z,3.00
2023-02-02T09:20:20.252Z,2.80
2023-02-02T09:22:52.244Z,5.97
2023-02-02T09:25:25.382Z,7.55
2023-02-02T09:27:56.811Z,4.90
2023-02-02T09:30:28.074Z,2.65
2023-02-02T09:32:59.518Z,2.05
2023-02-02T09:35:30.464Z,7.20
2023-02-02T09:38:01.956Z,6.38
2023-02-02T09:40:36.599Z,4.40
2023-02-02T09:43:27.217Z,3.70
2023-02-02T09:46:07.143Z,4.32
2023-02-02T09:48:47.534Z,1.98
2023-02-02T09:51:22.763Z,15.50
2023-02-02T09:53:59.944Z,2.47
2023-02-02T09:56:39.645Z,4.40
2023-02-02T09:59:22.831Z,5.82
2023-02-02T10:01:59.251Z,6.55
2023-02-02T10:04:37.425Z,5.60
2023-02-02T10:07:14.689Z,4.70
2023-02-02T10:09:55.604Z,2.38
2023-02-02T10:12:38.171Z,7.22
2023-02-02T10:15:23.260Z,2.43
2023-02-02T10:18:01.055Z,17.05
2023-02-02T10:20:43.916Z,6.15
2023-02-02T10:23:26.525Z,8.52
2023-02-02T10:26:03.817Z,4.93
2023-02-02T10:28:57.897Z,5.13
2023-02-02T10:31:45.708Z,2.83
2023-02-02T10:34:24.255Z,4.00
2023-02-02T10:37:12.633Z,1.50
2023-02-02T10:40:05.530Z,5.13
2023-02-02T10:43:10.348Z,4.32
2023-02-02T10:45:45.226Z,4.13
2023-02-02T10:48:18.983Z,2.95
2023-02-02T10:50:54.032Z,5.72
2023-02-02T10:53:26.897Z,3.35
2023-02-02T10:56:02.886Z,1.93
2023-02-02T10:58:42.035Z,9.18
2023-02-02T11:01:18.236Z,4.10
2023-02-02T11:04:10.188Z,6.55
2023-02-02T11:06:52.492Z,5.47
2023-02-02T11:09:29.847Z,6.65
2023-02-02T11:12:11.722Z,4.07
2023-02-02T11:14:48.655Z,2.67
2023-02-02T11:17:24.442Z,4.97
2023-02-02T11:19:56.481Z,2.58
2023-02-02T11:22:34.133Z,5.22
2023-02-02T11:25:08.136Z,7.90
2023-02-02T11:27:42.867Z,5.60
2023-02-02T11:30:27.592Z,5.28
2023-02-02T11:32:59.944Z,4.90
2023-02-02T11:35:31.275Z,6.83
2023-02-02T11:38:15.888Z,8.20
2023-02-02T11:40:53.801Z,5.55
2023-02-02T11:43:30.534Z,12.65
2023-02-02T11:46:04.909Z,8.48
2023-02-02T11:48:41.031Z,6.80
2023-02-02T11:51:25.085Z,5.32
2023-02-02T11:56:39.948Z,9.60
2023-02-02T11:59:31.291Z,8.60
2023-02-02T12:02:32.143Z,6.85
2023-02-02T12:05:38.116Z,5.95
2023-02-02T12:08:12.812Z,6.07
2023-02-02T12:10:50.713Z,10.00
2023-02-02T12:13:42.764Z,5.63
2023-02-02T12:16:31.864Z,8.85
2023-02-02T12:19:21.156Z,3.65
2023-02-02T12:22:04.100Z,9.98
2023-02-02T12:24:39.943Z,5.07
2023-02-02T12:27:26.318Z,5.95
2023-02-02T12:30:25.161Z,4.10
2023-02-02T12:33:22.835Z,3.88
2023-02-02T12:36:24.774Z,5.93
2023-02-02T12:39:30.262Z,2.15
2023-02-02T12:42:38.972Z,7.07
2023-02-02T12:45:39.759Z,8.57
2023-02-02T12:48:28.329Z,9.82
2023-02-02T12:51:18.231Z,3.35
2023-02-02T12:54:34.850Z,3.65
2023-02-02T12:57:25.572Z,5.07
2023-02-02T13:00:18.645Z,7.65
2023-02-02T13:03:09.261Z,8.13
2023-02-02T13:05:54.827Z,9.70
2023-02-02T13:08:32.046Z,8.38
2023-02-02T13:11:29.635Z,7.57
2023-02-02T13:14:06.584Z,6.15
2023-02-02T13:16:42.138Z,9.60
2023-02-02T13:19:21.447Z,7.70
2023-02-02T13:21:54.233Z,5.93
2023-02-02T13:24:31.317Z,5.85
2023-02-02T13:27:07.907Z,12.52
2023-02-02T13:29:47.852Z,11.57
2023-02-02T13:32:28.238Z,7.47
2023-02-02T13:35:04.896Z,9.70
2023-02-02T13:37:45.233Z,10.48
2023-02-02T13:40:29.848Z,13.57
2023-02-02T13:43:17.938Z,0.47
2023-02-02T13:46:03.611Z,0.00
2023-02-02T13:48:43.844Z,0.00
2023-02-02T13:51:56.940Z,0.00
2023-02-02T13:55:24.807Z,0.00
2023-02-02T13:58:32.041Z,0.08
2023-02-02T14:01:07.781Z,0.15
2023-02-02T14:03:41.470Z,0.00
2023-02-02T14:06:17.031Z,0.00
2023-02-02T14:08:53.226Z,0.00
2023-02-02T14:11:30.403Z,0.00
2023-02-02T14:14:33.477Z,0.00
2023-02-02T14:17:08.335Z,5.23
2023-02-02T14:19:57.121Z,0.00
2023-02-02T14:22:51.441Z,0.00
2023-02-02T14:28:44.731Z,0.00
2023-02-02T14:31:43.644Z,0.60
2023-02-02T14:34:30.692Z,0.00
2023-02-02T14:37:40.403Z,1.00
2023-02-02T14:40:35.082Z,0.00
2023-02-02T14:43:42.846Z,0.00
2023-02-02T14:46:48.340Z,0.08
2023-02-02T14:49:29.876Z,0.00
2023-02-02T14:52:05.378Z,0.00
2023-02-02T14:54:43.561Z,2.17
2023-02-02T14:57:26.928Z,0.00
2023-02-02T15:00:01.325Z,0.20
2023-02-02T15:02:38.014Z,0.00
2023-02-02T15:05:44.090Z,0.40
2023-02-02T15:08:25.890Z,3.38
2023-02-02T15:11:27.925Z,0.43
2023-02-02T15:14:16.684Z,1.08
2023-02-02T15:16:48.909Z,0.00
2023-02-02T15:19:32.768Z,0.00
2023-02-02T15:22:28.423Z,0.10
2023-02-02T15:25:03.121Z,0.10
2023-02-02T15:27:34.275Z,0.00
2023-02-02T15:30:11.131Z,0.75
2023-02-02T15:32:42.318Z,0.10
2023-02-02T15:35:22.457Z,1.55
2023-02-02T15:38:00.591Z,0.00
2023-02-02T15:40:33.363Z,0.15
2023-02-02T15:43:09.540Z,0.20
2023-02-02T15:45:48.200Z,0.00
2023-02-02T15:48:26.915Z,0.08
2023-02-02T15:51:03.518Z,0.00
2023-02-02T15:53:48.972Z,0.22
2023-02-02T15:56:29.416Z,1.02
2023-02-02T15:59:01.891Z,0.17
2023-02-02T16:01:45.271Z,0.30
2023-02-02T16:04:21.089Z,0.00
2023-02-02T16:06:55.236Z,0.00
2023-02-02T16:09:29.773Z,0.10
2023-02-02T16:12:01.602Z,0.00
2023-02-02T16:14:36.415Z,0.00
2023-02-02T16:17:15.125Z,0.00
2023-02-02T16:19:46.418Z,0.00
2023-02-02T16:22:24.114Z,0.00
2023-02-02T16:24:59.716Z,0.10
2023-02-02T16:27:32.898Z,0.00
2023-02-02T16:30:09.247Z,5.22
2023-02-02T16:32:42.053Z,2.10
2023-02-02T16:35:34.535Z,5.32
2023-02-02T16:38:25.409Z,3.78
2023-02-02T16:41:08.476Z,4.97
2023-02-02T16:43:42.231Z,5.07
2023-02-02T16:46:16.693Z,7.18
2023-02-02T16:48:58.583Z,5.03
2023-02-02T16:51:32.892Z,4.88
2023-02-02T16:54:21.606Z,4.00
2023-02-02T16:57:00.797Z,2.55
2023-02-02T16:59:35.602Z,3.42
2023-02-02T17:02:22.258Z,2.80
2023-02-02T17:05:00.086Z,1.50
2023-02-02T17:07:33.450Z,3.08
2023-02-02T17:10:26.673Z,3.72
2023-02-02T17:12:57.408Z,1.90
2023-02-02T17:15:35.826Z,2.00
2023-02-02T17:18:07.758Z,2.10
2023-02-02T17:20:41.133Z,2.58
2023-02-02T17:23:19.852Z,2.55
2023-02-02T17:25:52.957Z,1.98
2023-02-02T17:28:26.865Z,4.72
2023-02-02T17:31:01.910Z,2.42
2023-02-02T17:33:36.399Z,2.85
2023-02-02T17:36:08.852Z,1.65
2023-02-02T17:38:39.602Z,5.78
2023-02-02T17:41:15.233Z,3.70
2023-02-02T17:43:46.894Z,1.77
2023-02-02T17:46:19.745Z,2.38
2023-02-02T17:48:50.404Z,2.42
2023-02-02T17:51:21.277Z,2.55
2023-02-02T17:53:55.520Z,4.55
2023-02-02T17:56:29.177Z,5.28
2023-02-02T17:58:59.963Z,5.10
2023-02-02T18:01:31.149Z,4.28
2023-02-02T18:04:02.270Z,2.58
2023-02-02T18:06:33.408Z,3.22
2023-02-02T18:09:04.282Z,2.60
2023-02-02T18:11:36.929Z,4.13
2023-02-02T18:14:07.804Z,7.03
2023-02-02T18:16:38.956Z,4.65
2023-02-02T18:19:10.456Z,7.15
2023-02-02T18:21:41.626Z,2.88
2023-02-02T18:24:15.836Z,1.95
2023-02-02T18:26:48.470Z,2.78
2023-02-02T18:29:19.174Z,7.13
2023-02-02T18:31:50.153Z,4.80
2023-02-02T18:34:20.881Z,3.15
2023-02-02T18:36:51.962Z,4.75
2023-02-02T18:39:22.919Z,0.68
2023-02-02T18:41:55.697Z,3.20
2023-02-02T18:44:26.970Z,1.45
2023-02-02T18:46:58.191Z,2.00
2023-02-02T18:49:28.845Z,2.15
2023-02-02T18:51:59.835Z,3.83
2023-02-02T18:54:30.830Z,4.10
2023-02-02T18:57:03.500Z,3.40
2023-02-02T18:59:36.139Z,4.65
2023-02-02T19:02:07.597Z,3.28
2023-02-02T19:04:38.541Z,4.13
2023-02-02T19:07:38.154Z,6.43
2023-02-02T19:10:10.643Z,10.02
2023-02-02T19:12:43.205Z,4.60
2023-02-02T19:15:15.534Z,5.47
2023-02-02T19:17:55.183Z,7.38
2023-02-02T19:20:29.721Z,6.68
2023-02-02T19:23:08.620Z,10.05
2023-02-02T19:25:41.479Z,5.90
2023-02-02T19:30:55.701Z,5.57
2023-02-02T19:33:40.917Z,5.18
2023-02-02T19:36:16.868Z,5.53
2023-02-02T19:38:49.221Z,6.93
2023-02-02T19:41:22.481Z,9.10
2023-02-02T19:44:00.619Z,3.72
2023-02-02T19:46:32.748Z,8.13
2023-02-02T19:49:13.442Z,12.67
2023-02-02T19:51:46.996Z,6.32
2023-02-02T19:54:35.313Z,7.45
2023-02-02T19:57:18.284Z,4.95
2023-02-02T19:59:53.609Z,5.82
2023-02-02T20:02:53.285Z,10.02
2023-02-02T20:05:26.638Z,8.15
2023-02-02T20:08:02.906Z,11.30
2023-02-02T20:10:42.623Z,5.57
2023-02-02T20:13:19.963Z,7.47
2023-02-02T20:16:03.566Z,7.32
2023-02-02T20:18:44.417Z,4.35
2023-02-02T20:21:27.663Z,4.03
2023-02-02T20:23:59.120Z,9.57
2023-02-02T20:26:38.520Z,8.23
2023-02-02T20:29:19.375Z,6.60
2023-02-02T20:31:54.049Z,7.68
2023-02-02T20:34:29.350Z,6.25
2023-02-02T20:37:04.646Z,6.25
2023-02-02T20:39:40.882Z,6.30
2023-02-02T20:42:12.389Z,8.77
2023-02-02T20:44:43.840Z,7.25
2023-02-02T20:47:16.739Z,6.82
2023-02-02T20:49:48.163Z,11.80
2023-02-02T20:52:24.296Z,3.65
2023-02-02T20:54:55.389Z,7.18
2023-02-02T20:57:26.626Z,6.25
2023-02-02T20:59:57.932Z,9.45
2023-02-02T21:02:30.640Z,11.07
2023-02-02T21:05:01.557Z,11.02
2023-02-02T21:07:33.059Z,11.63
2023-02-02T21:10:05.289Z,9.57
2023-02-02T21:12:36.407Z,9.98
2023-02-02T21:15:08.046Z,8.68
2023-02-02T21:17:40.908Z,8.80
2023-02-02T21:20:14.741Z,8.80
2023-02-02T21:22:46.443Z,11.48
2023-02-02T21:25:17.611Z,9.30
2023-02-02T21:27:48.873Z,5.32
2023-02-02T21:30:19.992Z,6.57
2023-02-02T21:32:52.497Z,10.02
2023-02-02T21:35:23.500Z,8.57
2023-02-02T21:37:59.111Z,9.05
2023-02-02T21:40:34.854Z,7.47
2023-02-02T21:43:17.324Z,9.10
2023-02-02T21:45:53.094Z,9.23
2023-02-02T21:48:34.172Z,8.88
2023-02-02T21:51:23.943Z,12.32
2023-02-02T21:53:55.222Z,10.50
2023-02-02T21:56:37.398Z,11.10
2023-02-02T21:59:16.443Z,6.10
2023-02-02T22:01:49.239Z,12.48
2023-02-02T22:09:29.539Z,20.33
2023-02-02T22:12:02.366Z,16.73
2023-02-02T22:14:39.830Z,19.70
2023-02-02T22:17:27.919Z,16.13
2023-02-02T22:20:03.162Z,20.88
2023-02-02T22:22:37.744Z,19.17
2023-02-02T22:25:34.485Z,22.58
2023-02-02T22:28:18.841Z,24.98
2023-02-02T22:30:50.973Z,20.23
2023-02-02T22:33:22.798Z,17.90
2023-02-02T22:35:55.927Z,19.63
2023-02-02T22:38:27.692Z,23.60
2023-02-02T22:40:58.855Z,21.25
2023-02-02T22:43:29.717Z,15.88
2023-02-02T22:46:00.977Z,19.33
2023-02-02T22:48:31.720Z,16.38
2023-02-02T22:51:04.277Z,13.85
2023-02-02T22:53:34.996Z,16.15
2023-02-02T22:56:07.167Z,11.27
2023-02-02T22:58:37.891Z,12.45
2023-02-02T23:01:09.549Z,7.40
2023-02-02T23:03:40.443Z,18.45
2023-02-02T23:06:13.129Z,25.02
2023-02-02T23:08:44.533Z,20.58
2023-02-02T23:11:15.828Z,19.02
2023-02-02T23:13:46.563Z,20.67
2023-02-02T23:16:18.182Z,26.65
2023-02-02T23:18:49.077Z,19.80
2023-02-02T23:21:22.043Z,26.42
2023-02-02T23:23:52.856Z,24.52
2023-02-02T23:26:24.084Z,27.75
2023-02-02T23:28:55.076Z,26.48
2023-02-02T23:31:26.205Z,28.40
2023-02-02T23:33:56.904Z,26.17
2023-02-02T23:36:29.365Z,33.10
2023-02-02T23:39:00.120Z,37.05
2023-02-02T23:41:31.218Z,33.17
2023-02-02T23:44:02.185Z,29.70
2023-02-02T23:46:34.129Z,30.23
2023-02-02T23:49:05.252Z,30.95
2023-02-02T23:51:37.998Z,33.85
2023-02-02T23:54:11.025Z,33.63
2023-02-02T23:56:43.332Z,35.15
2023-02-02T23:59:14.154Z,32.65
